Time;durP1;ratioP1;P1;durP2;ratioP2;P2;SDS_P1;SDS_P2;PMS_P1;PMS_P2;Temp;Humidity;BMP_temperature;BMP_pressure;BME280_temperature;BME280_humidity;BME280_pressure;Samples;Min_cycle;Max_cycle;Signal;HPM_P1;HPM_P2
2022/07/30 00:00:09;;;;;;;10.65;7.75;;;;;;;;;;5074380;28;20051;-71
2022/07/30 00:02:35;;;;;;;13.55;8.00;;;;;;;;;;5076323;28;20120;-73
2022/07/30 00:05:01;;;;;;;11.55;8.13;;;;;;;;;;5077307;28;20410;-72
2022/07/30 00:07:27;;;;;;;10.75;8.18;;;;;;;;;;5075666;28;20542;-73
2022/07/30 00:09:53;;;;;;;12.82;8.45;;;;;;;;;;5076650;28;20406;-72
2022/07/30 00:12:19;;;;;;;10.73;7.70;;;;;;;;;;5075617;28;20440;-72
2022/07/30 00:14:45;;;;;;;10.38;8.27;;;;;;;;;;5077791;28;20056;-72
2022/07/30 00:17:11;;;;;;;13.40;8.70;;;;;;;;;;5075609;28;20047;-71
2022/07/30 00:19:38;;;;;;;10.73;8.15;;;;;;;;;;5076294;28;20095;-72
2022/07/30 00:22:04;;;;;;;14.65;7.90;;;;;;;;;;5074821;28;20051;-72
2022/07/30 00:24:30;;;;;;;12.10;7.70;;;;;;;;;;5077611;28;20044;-72
2022/07/30 00:26:56;;;;;;;13.60;9.13;;;;;;;;;;5073797;28;20494;-71
2022/07/30 00:29:22;;;;;;;15.10;8.13;;;;;;;;;;5077667;28;20044;-71
2022/07/30 00:31:48;;;;;;;11.57;7.90;;;;;;;;;;5077407;28;20147;-72
2022/07/30 00:34:14;;;;;;;11.85;7.82;;;;;;;;;;5074595;28;20049;-72
2022/07/30 00:36:40;;;;;;;13.00;7.90;;;;;;;;;;5077362;28;20041;-73
2022/07/30 00:39:06;;;;;;;13.10;8.25;;;;;;;;;;5076730;28;20090;-72
2022/07/30 00:41:32;;;;;;;11.63;7.72;;;;;;;;;;5076279;28;20036;-72
2022/07/30 00:43:59;;;;;;;11.05;7.97;;;;;;;;;;5076278;28;20457;-72
2022/07/30 00:46:25;;;;;;;13.98;8.43;;;;;;;;;;5077550;28;20466;-72
2022/07/30 00:48:51;;;;;;;19.17;9.85;;;;;;;;;;5074545;28;20040;-72
2022/07/30 00:51:20;;;;;;;16.67;9.90;;;;;;;;;;5045015;28;20057;-73
2022/07/30 00:53:46;;;;;;;16.52;9.85;;;;;;;;;;5057786;28;20076;-72
2022/07/30 00:56:11;;;;;;;16.35;9.50;;;;;;;;;;5071112;28;20075;-72
2022/07/30 00:58:37;;;;;;;14.90;9.93;;;;;;;;;;5076162;28;20044;-71
2022/07/30 01:01:03;;;;;;;20.02;9.85;;;;;;;;;;5077255;28;20036;-72
2022/07/30 01:03:29;;;;;;;16.42;10.52;;;;;;;;;;5076114;28;20041;-72
2022/07/30 01:05:55;;;;;;;15.32;9.60;;;;;;;;;;5077120;28;20398;-72
2022/07/30 01:08:21;;;;;;;12.75;9.40;;;;;;;;;;5076373;28;20479;-71
2022/07/30 01:10:47;;;;;;;15.15;10.35;;;;;;;;;;5078675;28;20131;-72
2022/07/30 01:13:13;;;;;;;10.93;8.20;;;;;;;;;;5078029;28;20040;-71
2022/07/30 01:15:40;;;;;;;11.57;8.88;;;;;;;;;;5075034;28;20131;-72
2022/07/30 01:18:07;;;;;;;12.77;9.27;;;;;;;;;;5075676;28;20498;-72
2022/07/30 01:20:36;;;;;;;9.52;7.03;;;;;;;;;;5076196;28;20492;-72
2022/07/30 01:23:05;;;;;;;8.50;7.05;;;;;;;;;;5078015;28;20044;-72
2022/07/30 01:25:31;;;;;;;8.18;6.10;;;;;;;;;;5077353;28;20048;-72
2022/07/30 01:28:02;;;;;;;10.13;6.07;;;;;;;;;;5064548;28;21125;-72
2022/07/30 01:30:28;;;;;;;;;;;;;;;;;;5076647;28;20078;-72
2022/07/30 01:32:55;;;;;;;8.90;6.88;;;;;;;;;;5078559;28;19983;-72
2022/07/30 01:35:22;;;;;;;10.27;7.90;;;;;;;;;;5076173;28;20040;-72
2022/07/30 01:37:48;;;;;;;9.88;8.88;;;;;;;;;;5077985;28;20049;-72
2022/07/30 01:40:15;;;;;;;8.95;7.57;;;;;;;;;;5078142;28;20037;-72
2022/07/30 01:42:42;;;;;;;9.20;7.25;;;;;;;;;;5077777;28;20482;-72
2022/07/30 01:45:08;;;;;;;9.93;6.53;;;;;;;;;;5077165;28;20124;-72
2022/07/30 01:47:35;;;;;;;8.05;5.32;;;;;;;;;;5075937;28;20510;-72
2022/07/30 01:50:02;;;;;;;6.97;4.95;;;;;;;;;;5074457;28;20135;-73
2022/07/30 01:52:30;;;;;;;6.80;5.53;;;;;;;;;;5077653;28;20120;-73
2022/07/30 01:54:57;;;;;;;6.63;5.18;;;;;;;;;;5077563;28;20037;-73
2022/07/30 01:57:25;;;;;;;6.80;4.82;;;;;;;;;;5075274;28;20537;-72
2022/07/30 01:59:54;;;;;;;7.13;5.93;;;;;;;;;;5077016;28;20049;-72
2022/07/30 02:02:20;;;;;;;9.40;6.72;;;;;;;;;;5074691;28;20052;-72
2022/07/30 02:04:46;;;;;;;9.45;7.05;;;;;;;;;;5076339;28;20055;-72
2022/07/30 02:07:16;;;;;;;9.88;8.43;;;;;;;;;;5077031;28;20044;-72
2022/07/30 02:09:48;;;;;;;8.68;6.85;;;;;;;;;;5078334;28;20489;-71
2022/07/30 02:12:29;;;;;;;8.00;6.78;;;;;;;;;;5075168;28;20048;-72
2022/07/30 02:14:58;;;;;;;7.93;5.95;;;;;;;;;;5075571;28;20506;-73
2022/07/30 02:17:28;;;;;;;7.30;5.90;;;;;;;;;;5073627;28;20051;-72
2022/07/30 02:19:56;;;;;;;6.82;5.68;;;;;;;;;;5074946;28;20153;-72
2022/07/30 02:22:23;;;;;;;8.80;6.10;;;;;;;;;;5076829;28;20041;-72
2022/07/30 02:24:50;;;;;;;7.65;5.70;;;;;;;;;;5076244;28;20044;-72
2022/07/30 02:27:19;;;;;;;7.45;6.10;;;;;;;;;;5073164;28;20604;-71
2022/07/30 02:29:46;;;;;;;7.82;6.03;;;;;;;;;;5076312;28;20037;-72
2022/07/30 02:32:13;;;;;;;7.55;5.68;;;;;;;;;;5076692;28;20036;-71
2022/07/30 02:34:40;;;;;;;7.13;6.30;;;;;;;;;;5076120;28;20041;-72
2022/07/30 02:37:06;;;;;;;11.13;6.13;;;;;;;;;;5075707;28;20098;-72
2022/07/30 02:39:33;;;;;;;7.95;6.40;;;;;;;;;;5077173;28;20040;-72
2022/07/30 02:42:00;;;;;;;8.00;6.13;;;;;;;;;;5076059;28;20443;-72
2022/07/30 02:44:28;;;;;;;7.30;6.60;;;;;;;;;;5074013;28;20056;-72
2022/07/30 02:46:55;;;;;;;8.85;7.18;;;;;;;;;;5075569;28;20052;-73
2022/07/30 02:49:22;;;;;;;9.65;8.20;;;;;;;;;;5074596;28;20040;-71
2022/07/30 02:51:48;;;;;;;10.10;6.80;;;;;;;;;;5076481;28;20105;-73
2022/07/30 02:54:17;;;;;;;10.82;8.57;;;;;;;;;;5074022;28;20467;-72
2022/07/30 02:56:43;;;;;;;12.07;6.70;;;;;;;;;;5075837;28;20045;-72
2022/07/30 02:59:11;;;;;;;9.35;6.28;;;;;;;;;;5076815;28;20045;-72
2022/07/30 03:01:37;;;;;;;8.88;6.20;;;;;;;;;;5071942;28;20047;-72
2022/07/30 03:04:04;;;;;;;7.75;5.90;;;;;;;;;;5072529;28;20182;-72
2022/07/30 03:06:31;;;;;;;7.75;6.20;;;;;;;;;;5075954;28;20057;-73
2022/07/30 03:08:57;;;;;;;5.78;3.60;;;;;;;;;;5076228;28;20076;-72
2022/07/30 03:11:24;;;;;;;5.30;4.22;;;;;;;;;;5072598;28;20044;-73
2022/07/30 03:13:50;;;;;;;27.98;7.45;;;;;;;;;;5074676;28;20071;-72
2022/07/30 03:16:17;;;;;;;8.95;8.05;;;;;;;;;;5069697;28;20600;-73
2022/07/30 03:18:43;;;;;;;13.95;9.20;;;;;;;;;;5055902;28;20045;-72
2022/07/30 03:21:11;;;;;;;25.88;11.13;;;;;;;;;;5055666;28;20051;-73
2022/07/30 03:23:37;;;;;;;25.65;11.25;;;;;;;;;;5073115;28;20056;-73
2022/07/30 03:26:05;;;;;;;11.25;9.90;;;;;;;;;;5073929;28;20045;-72
2022/07/30 03:28:31;;;;;;;10.27;8.82;;;;;;;;;;5078288;28;20481;-72
2022/07/30 03:30:58;;;;;;;10.27;9.25;;;;;;;;;;5079830;28;20040;-72
2022/07/30 03:33:24;;;;;;;9.35;8.35;;;;;;;;;;5080881;28;20045;-71
2022/07/30 03:35:50;;;;;;;8.73;7.30;;;;;;;;;;5076008;28;20044;-72
2022/07/30 03:38:19;;;;;;;8.75;7.28;;;;;;;;;;5077469;28;20043;-73
2022/07/30 03:40:46;;;;;;;8.90;8.00;;;;;;;;;;5078463;28;20052;-73
2022/07/30 03:43:12;;;;;;;8.63;7.72;;;;;;;;;;5078224;28;20128;-72
2022/07/30 03:45:40;;;;;;;9.35;8.35;;;;;;;;;;5077296;28;20049;-72
2022/07/30 03:48:07;;;;;;;9.20;8.10;;;;;;;;;;5076756;28;20044;-72
2022/07/30 03:50:34;;;;;;;10.57;8.10;;;;;;;;;;5077258;28;20477;-71
2022/07/30 03:53:00;;;;;;;12.30;9.70;;;;;;;;;;5077418;28;20056;-72
2022/07/30 03:55:26;;;;;;;11.90;10.70;;;;;;;;;;5079986;28;20131;-72
2022/07/30 03:57:52;;;;;;;12.95;11.10;;;;;;;;;;5078783;28;20128;-73
2022/07/30 04:00:18;;;;;;;13.45;11.05;;;;;;;;;;5078181;28;20145;-73
2022/07/30 04:02:45;;;;;;;16.23;12.23;;;;;;;;;;5077940;28;20101;-72
2022/07/30 04:05:12;;;;;;;14.73;11.77;;;;;;;;;;5079635;28;20409;-72
2022/07/30 04:07:38;;;;;;;15.95;11.40;;;;;;;;;;5058111;28;20045;-72
2022/07/30 04:10:04;;;;;;;14.27;10.93;;;;;;;;;;5059667;28;20120;-71
2022/07/30 04:12:30;;;;;;;19.08;12.18;;;;;;;;;;5059553;28;20099;-72
2022/07/30 04:14:56;;;;;;;14.88;12.02;;;;;;;;;;5075684;28;20414;-72
2022/07/30 04:17:29;;;;;;;14.40;12.25;;;;;;;;;;5076958;28;20037;-72
2022/07/30 04:20:02;;;;;;;16.33;12.15;;;;;;;;;;5077166;28;20068;-72
2022/07/30 04:22:33;;;;;;;19.08;12.85;;;;;;;;;;5073900;28;20123;-72
2022/07/30 04:25:03;;;;;;;16.48;11.32;;;;;;;;;;5077605;28;20045;-72
2022/07/30 04:27:30;;;;;;;14.23;10.53;;;;;;;;;;5073556;28;20052;-72
2022/07/30 04:29:56;;;;;;;14.00;10.43;;;;;;;;;;5072430;28;20041;-73
2022/07/30 04:32:23;;;;;;;18.50;11.57;;;;;;;;;;5059696;28;20044;-72
2022/07/30 04:34:49;;;;;;;13.13;10.68;;;;;;;;;;5077287;28;20055;-72
2022/07/30 04:37:20;;;;;;;17.02;11.15;;;;;;;;;;5077623;28;20045;-73
2022/07/30 04:39:48;;;;;;;16.90;11.80;;;;;;;;;;5078861;28;20450;-72
2022/07/30 04:42:15;;;;;;;16.88;11.00;;;;;;;;;;5078272;28;20044;-73
2022/07/30 04:44:41;;;;;;;13.55;10.73;;;;;;;;;;5078398;28;20123;-73
2022/07/30 04:47:07;;;;;;;20.13;12.20;;;;;;;;;;5076778;28;20041;-71
2022/07/30 04:49:34;;;;;;;16.55;11.82;;;;;;;;;;5077212;28;20036;-72
2022/07/30 04:52:00;;;;;;;18.80;11.40;;;;;;;;;;5077413;28;20163;-72
2022/07/30 04:54:28;;;;;;;15.32;11.90;;;;;;;;;;5063310;28;20040;-72
2022/07/30 04:56:54;;;;;;;15.10;12.40;;;;;;;;;;5072620;28;20513;-72
2022/07/30 04:59:22;;;;;;;14.90;11.70;;;;;;;;;;5076046;28;20071;-72
2022/07/30 05:01:48;;;;;;;17.25;12.32;;;;;;;;;;5075751;28;20047;-71
2022/07/30 05:04:15;;;;;;;21.13;13.35;;;;;;;;;;5077303;28;20036;-72
2022/07/30 05:06:42;;;;;;;17.52;13.13;;;;;;;;;;5076840;28;20049;-72
2022/07/30 05:09:08;;;;;;;15.32;12.70;;;;;;;;;;5074772;28;20098;-73
2022/07/30 05:11:35;;;;;;;20.85;13.00;;;;;;;;;;5075502;28;20607;-73
2022/07/30 05:14:01;;;;;;;16.90;13.15;;;;;;;;;;5076172;28;20040;-71
2022/07/30 05:16:28;;;;;;;17.08;13.60;;;;;;;;;;5074192;28;20560;-72
2022/07/30 05:18:54;;;;;;;18.75;13.68;;;;;;;;;;5076661;28;20056;-73
2022/07/30 05:21:20;;;;;;;16.58;13.23;;;;;;;;;;5074950;28;20052;-72
2022/07/30 05:23:46;;;;;;;21.27;14.02;;;;;;;;;;5075355;28;20056;-73
2022/07/30 05:26:12;;;;;;;17.50;12.98;;;;;;;;;;5072671;28;20052;-73
2022/07/30 05:28:38;;;;;;;17.45;13.27;;;;;;;;;;5074544;28;20040;-73
2022/07/30 05:31:04;;;;;;;15.50;13.45;;;;;;;;;;5076525;28;20068;-71
2022/07/30 05:33:30;;;;;;;22.08;14.82;;;;;;;;;;5074969;28;20037;-72
2022/07/30 05:35:59;;;;;;;23.85;15.60;;;;;;;;;;5075537;28;20048;-71
2022/07/30 05:38:24;;;;;;;21.88;15.52;;;;;;;;;;5073389;28;20094;-72
2022/07/30 05:40:50;;;;;;;17.35;15.05;;;;;;;;;;5075362;28;20126;-72
2022/07/30 05:43:16;;;;;;;19.23;14.15;;;;;;;;;;5075202;28;20054;-72
2022/07/30 05:45:42;;;;;;;16.63;13.40;;;;;;;;;;5076125;28;20047;-71
2022/07/30 05:48:08;;;;;;;17.10;12.25;;;;;;;;;;5075243;28;20048;-72
2022/07/30 05:50:34;;;;;;;13.65;11.43;;;;;;;;;;5062485;28;20497;-73
2022/07/30 05:53:00;;;;;;;13.93;11.13;;;;;;;;;;5071972;28;20049;-72
2022/07/30 05:55:26;;;;;;;15.55;10.73;;;;;;;;;;5074712;28;20080;-72
2022/07/30 05:57:52;;;;;;;15.00;10.65;;;;;;;;;;5074609;28;20079;-72
2022/07/30 06:00:18;;;;;;;12.82;10.23;;;;;;;;;;5074122;28;20482;-72
2022/07/30 06:02:44;;;;;;;17.30;10.02;;;;;;;;;;5070515;28;20094;-73
2022/07/30 06:05:11;;;;;;;12.95;10.18;;;;;;;;;;5066495;28;20126;-73
2022/07/30 06:07:37;;;;;;;11.52;9.65;;;;;;;;;;5055721;28;20441;-73
2022/07/30 06:10:03;;;;;;;12.50;10.20;;;;;;;;;;5062108;28;20529;-74
2022/07/30 06:12:29;;;;;;;12.52;9.55;;;;;;;;;;5072542;28;20079;-73
2022/07/30 06:14:56;;;;;;;13.15;10.07;;;;;;;;;;5074031;28;20190;-73
2022/07/30 06:17:22;;;;;;;11.52;9.05;;;;;;;;;;5071457;28;20037;-72
2022/07/30 06:19:49;;;;;;;14.77;9.10;;;;;;;;;;5075145;28;20407;-73
2022/07/30 06:22:16;;;;;;;12.23;8.75;;;;;;;;;;5075411;28;20511;-73
2022/07/30 06:24:42;;;;;;;11.85;7.85;;;;;;;;;;5073986;28;20059;-71
2022/07/30 06:27:08;;;;;;;12.45;8.15;;;;;;;;;;5073259;28;20540;-72
2022/07/30 06:29:35;;;;;;;14.20;8.15;;;;;;;;;;5074006;28;20418;-73
2022/07/30 06:32:01;;;;;;;11.88;8.23;;;;;;;;;;5073833;28;20052;-73
2022/07/30 06:34:27;;;;;;;10.00;8.10;;;;;;;;;;5074462;28;20048;-73
2022/07/30 06:36:53;;;;;;;9.48;7.85;;;;;;;;;;5073526;28;20430;-73
2022/07/30 06:39:19;;;;;;;11.18;7.57;;;;;;;;;;5075264;28;20123;-72
2022/07/30 06:41:45;;;;;;;10.02;7.50;;;;;;;;;;5075067;28;20048;-73
2022/07/30 06:44:11;;;;;;;11.38;7.50;;;;;;;;;;5075157;28;20044;-73
2022/07/30 06:46:37;;;;;;;9.55;7.40;;;;;;;;;;5073453;28;20048;-73
2022/07/30 06:49:03;;;;;;;13.15;7.07;;;;;;;;;;5073866;28;20052;-72
2022/07/30 06:51:29;;;;;;;14.90;6.78;;;;;;;;;;5073529;28;20052;-73
2022/07/30 06:53:55;;;;;;;10.20;7.00;;;;;;;;;;5057224;28;20055;-74
2022/07/30 06:56:21;;;;;;;10.00;6.82;;;;;;;;;;5070328;28;20129;-73
2022/07/30 06:58:48;;;;;;;9.18;6.72;;;;;;;;;;5071388;28;20094;-73
2022/07/30 07:01:14;;;;;;;9.57;6.22;;;;;;;;;;5071278;28;20053;-73
2022/07/30 07:03:40;;;;;;;10.45;6.50;;;;;;;;;;5070898;28;20063;-74
2022/07/30 07:06:06;;;;;;;13.07;6.97;;;;;;;;;;5070235;28;20051;-73
2022/07/30 07:08:32;;;;;;;11.75;6.03;;;;;;;;;;5071765;28;20137;-75
2022/07/30 07:10:58;;;;;;;9.75;6.00;;;;;;;;;;5073219;28;20082;-71
2022/07/30 07:13:24;;;;;;;9.18;5.80;;;;;;;;;;5054485;28;20043;-73
2022/07/30 07:15:50;;;;;;;8.55;5.88;;;;;;;;;;5073029;28;20045;-72
2022/07/30 07:18:16;;;;;;;12.32;6.18;;;;;;;;;;5071330;28;20482;-73
2022/07/30 07:20:45;;;;;;;10.35;5.43;;;;;;;;;;5072848;28;20493;-74
2022/07/30 07:23:11;;;;;;;8.88;5.30;;;;;;;;;;5071961;28;20102;-72
2022/07/30 07:25:37;;;;;;;8.38;5.32;;;;;;;;;;5072780;28;20051;-72
2022/07/30 07:28:03;;;;;;;8.82;4.90;;;;;;;;;;5073198;28;20048;-72
2022/07/30 07:30:29;;;;;;;9.35;5.25;;;;;;;;;;5072931;28;20055;-73
2022/07/30 07:32:55;;;;;;;9.85;5.80;;;;;;;;;;5071812;28;20040;-74
2022/07/30 07:35:21;;;;;;;9.45;5.68;;;;;;;;;;5073054;28;20044;-74
2022/07/30 07:37:47;;;;;;;8.07;5.30;;;;;;;;;;5072265;28;20444;-73
2022/07/30 07:40:14;;;;;;;12.48;5.65;;;;;;;;;;5064019;28;20041;-73
2022/07/30 07:42:40;;;;;;;9.43;5.30;;;;;;;;;;5070056;28;20052;-73
2022/07/30 07:45:06;;;;;;;9.52;6.18;;;;;;;;;;5070457;28;20495;-74
2022/07/30 07:47:42;;;;;;;10.15;5.72;;;;;;;;;;5053111;28;20044;-74
2022/07/30 07:50:08;;;;;;;9.13;4.63;;;;;;;;;;5076128;28;20048;-74
2022/07/30 07:52:34;;;;;;;7.93;4.90;;;;;;;;;;5075715;28;20041;-73
2022/07/30 07:55:00;;;;;;;9.82;4.80;;;;;;;;;;5053981;28;20052;-73
2022/07/30 07:57:26;;;;;;;8.75;4.95;;;;;;;;;;5071491;28;20056;-73
2022/07/30 07:59:54;;;;;;;9.88;5.15;;;;;;;;;;5067112;28;20053;-73
2022/07/30 08:02:20;;;;;;;8.57;4.78;;;;;;;;;;5071219;28;20094;-73
2022/07/30 08:04:46;;;;;;;9.70;4.68;;;;;;;;;;5078367;28;20040;-73
2022/07/30 08:07:12;;;;;;;10.27;5.05;;;;;;;;;;5075987;28;20076;-73
2022/07/30 08:09:38;;;;;;;7.80;4.47;;;;;;;;;;5070500;28;20493;-73
2022/07/30 08:12:04;;;;;;;8.90;4.50;;;;;;;;;;5072350;28;20037;-73
2022/07/30 08:14:30;;;;;;;8.05;5.03;;;;;;;;;;5075319;28;20052;-73
2022/07/30 08:16:56;;;;;;;10.70;5.20;;;;;;;;;;5074407;28;20544;-73
2022/07/30 08:19:22;;;;;;;12.30;5.45;;;;;;;;;;5070067;28;20071;-73
2022/07/30 08:21:48;;;;;;;12.73;6.10;;;;;;;;;;5073129;28;20490;-73
2022/07/30 08:24:14;;;;;;;11.32;5.95;;;;;;;;;;5074189;28;20036;-72
2022/07/30 08:26:40;;;;;;;9.10;5.65;;;;;;;;;;5075569;28;20051;-73
2022/07/30 08:29:06;;;;;;;12.45;6.78;;;;;;;;;;5074816;28;20063;-72
2022/07/30 08:31:32;;;;;;;12.38;6.78;;;;;;;;;;5074847;28;20550;-73
2022/07/30 08:33:58;;;;;;;10.80;6.43;;;;;;;;;;5074560;28;20048;-72
2022/07/30 08:36:24;;;;;;;14.82;6.63;;;;;;;;;;5071450;28;20036;-72
2022/07/30 08:38:50;;;;;;;15.68;6.38;;;;;;;;;;5065824;28;20037;-73
2022/07/30 08:41:18;;;;;;;14.57;6.88;;;;;;;;;;5063147;28;20110;-72
2022/07/30 08:43:46;;;;;;;12.00;5.47;;;;;;;;;;5068301;28;20055;-71
2022/07/30 08:46:12;;;;;;;14.23;5.72;;;;;;;;;;5067123;28;20483;-72
2022/07/30 08:48:38;;;;;;;10.30;5.88;;;;;;;;;;5066632;28;20084;-71
2022/07/30 08:51:04;;;;;;;12.35;5.47;;;;;;;;;;5069576;28;20140;-72
2022/07/30 08:53:32;;;;;;;9.88;4.72;;;;;;;;;;5065038;28;20036;-72
2022/07/30 08:55:58;;;;;;;8.55;4.57;;;;;;;;;;5074925;28;20053;-73
2022/07/30 08:58:29;;;;;;;8.23;5.30;;;;;;;;;;5073077;28;20040;-70
2022/07/30 09:00:55;;;;;;;8.80;4.80;;;;;;;;;;5074561;28;20052;-68
2022/07/30 09:03:21;;;;;;;7.28;4.32;;;;;;;;;;5072220;28;20098;-68
2022/07/30 09:05:47;;;;;;;7.47;4.05;;;;;;;;;;5073132;28;20132;-70
2022/07/30 09:08:13;;;;;;;9.55;4.22;;;;;;;;;;5070033;28;20040;-70
2022/07/30 09:10:41;;;;;;;13.55;4.72;;;;;;;;;;5065268;28;20048;-70
2022/07/30 09:13:22;;;;;;;11.73;4.78;;;;;;;;;;5069648;28;20052;-72
2022/07/30 09:15:48;;;;;;;9.85;4.80;;;;;;;;;;5071566;28;20048;-72
2022/07/30 09:18:25;;;;;;;10.20;4.57;;;;;;;;;;5073038;28;20040;-73
2022/07/30 09:20:51;;;;;;;10.48;3.85;;;;;;;;;;5074065;28;20048;-70
2022/07/30 09:23:17;;;;;;;12.85;4.97;;;;;;;;;;5071802;28;20048;-70
2022/07/30 09:25:44;;;;;;;7.75;3.85;;;;;;;;;;5075476;28;20044;-82
2022/07/30 09:28:11;;;;;;;9.60;4.13;;;;;;;;;;5073912;28;20080;-71
2022/07/30 09:30:44;;;;;;;8.20;3.80;;;;;;;;;;5071713;28;20044;-70
2022/07/30 09:33:11;;;;;;;9.82;3.80;;;;;;;;;;5070948;28;20049;-68
2022/07/30 09:35:37;;;;;;;11.98;4.70;;;;;;;;;;5071511;28;20123;-69
2022/07/30 09:38:03;;;;;;;9.77;3.78;;;;;;;;;;5070691;28;20504;-69
2022/07/30 09:40:30;;;;;;;8.43;3.90;;;;;;;;;;5071499;28;20396;-73
2022/07/30 09:43:03;;;;;;;9.65;4.25;;;;;;;;;;5073094;28;20055;-69
2022/07/30 09:45:29;;;;;;;9.98;3.63;;;;;;;;;;5069837;28;20098;-69
2022/07/30 09:47:55;;;;;;;9.85;3.92;;;;;;;;;;5057078;28;20498;-69
2022/07/30 09:50:23;;;;;;;14.85;4.38;;;;;;;;;;5072129;28;20059;-69
2022/07/30 09:52:50;;;;;;;9.45;4.20;;;;;;;;;;5070059;28;20452;-69
2022/07/30 09:55:29;;;;;;;11.70;3.47;;;;;;;;;;5073216;28;20399;-70
2022/07/30 09:57:56;;;;;;;8.65;3.38;;;;;;;;;;5072889;28;20102;-69
2022/07/30 10:00:23;;;;;;;7.53;2.97;;;;;;;;;;5066596;28;20106;-69
2022/07/30 10:02:50;;;;;;;9.73;3.35;;;;;;;;;;5067642;28;20051;-73
2022/07/30 10:05:18;;;;;;;8.63;3.38;;;;;;;;;;5063286;28;20552;-73
2022/07/30 10:07:48;;;;;;;10.18;3.00;;;;;;;;;;5071427;28;20452;-73
2022/07/30 10:10:14;;;;;;;;;;;;;;;;;;5069062;28;20055;-74
2022/07/30 10:12:41;;;;;;;11.68;2.80;;;;;;;;;;5069444;28;19928;-69
2022/07/30 10:15:08;;;;;;;10.63;3.05;;;;;;;;;;5069713;28;20039;-69
2022/07/30 10:17:37;;;;;;;9.30;2.78;;;;;;;;;;5067091;28;20059;-71
2022/07/30 10:20:04;;;;;;;9.50;2.80;;;;;;;;;;5072785;28;20049;-72
2022/07/30 10:22:30;;;;;;;9.80;3.17;;;;;;;;;;5072309;28;20055;-69
2022/07/30 10:24:56;;;;;;;9.48;3.28;;;;;;;;;;5069595;28;20044;-72
2022/07/30 10:27:22;;;;;;;10.02;2.53;;;;;;;;;;5070556;28;20043;-73
2022/07/30 10:29:49;;;;;;;8.65;2.83;;;;;;;;;;5070140;28;20049;-72
2022/07/30 10:32:15;;;;;;;11.32;2.90;;;;;;;;;;5069278;28;20521;-73
2022/07/30 10:34:42;;;;;;;9.82;2.72;;;;;;;;;;5067872;28;20064;-74
2022/07/30 10:37:08;;;;;;;9.38;3.03;;;;;;;;;;5064558;28;21118;-68
2022/07/30 10:39:42;;;;;;;9.88;2.70;;;;;;;;;;5067984;28;20037;-68
2022/07/30 10:42:33;;;;;;;9.30;3.17;;;;;;;;;;5066366;28;20398;-67
2022/07/30 10:45:08;;;;;;;8.73;2.73;;;;;;;;;;5070857;28;20454;-68
2022/07/30 10:47:34;;;;;;;8.50;2.65;;;;;;;;;;5040264;28;20304;-68
2022/07/30 10:50:16;;;;;;;9.57;2.92;;;;;;;;;;5068230;28;20068;-68
2022/07/30 10:52:45;;;;;;;8.40;2.70;;;;;;;;;;5071592;28;20387;-68
2022/07/30 10:55:12;;;;;;;7.88;2.45;;;;;;;;;;5070412;28;20686;-68
2022/07/30 10:57:56;;;;;;;8.05;2.53;;;;;;;;;;5070759;28;20066;-68
2022/07/30 11:00:22;;;;;;;8.75;2.55;;;;;;;;;;5064136;28;20075;-68
2022/07/30 11:03:06;;;;;;;8.63;2.70;;;;;;;;;;5067987;28;20068;-71
2022/07/30 11:05:32;;;;;;;8.88;2.50;;;;;;;;;;5066945;28;20056;-68
2022/07/30 11:08:18;;;;;;;11.48;3.13;;;;;;;;;;5065914;28;20133;-68
2022/07/30 11:10:45;;;;;;;10.15;3.05;;;;;;;;;;5068704;28;20033;-71
2022/07/30 11:13:11;;;;;;;9.35;2.67;;;;;;;;;;5063155;28;20040;-70
2022/07/30 11:15:57;;;;;;;8.05;2.47;;;;;;;;;;5066470;28;20072;-70
2022/07/30 11:18:24;;;;;;;9.18;2.35;;;;;;;;;;5064862;28;20475;-69
2022/07/30 11:21:11;;;;;;;8.27;2.45;;;;;;;;;;5067182;28;20048;-71
2022/07/30 11:23:39;;;;;;;9.18;2.50;;;;;;;;;;5062117;28;20052;-70
2022/07/30 11:26:05;;;;;;;10.27;2.55;;;;;;;;;;5068305;28;20044;-71
2022/07/30 11:28:42;;;;;;;9.43;2.50;;;;;;;;;;5070065;28;20510;-70
2022/07/30 11:31:24;;;;;;;6.57;2.40;;;;;;;;;;5072769;28;20399;-70
2022/07/30 11:33:51;;;;;;;5.25;2.10;;;;;;;;;;5071654;28;20049;-71
2022/07/30 11:36:17;;;;;;;7.40;2.33;;;;;;;;;;5071653;28;20052;-71
2022/07/30 11:38:51;;;;;;;7.20;2.30;;;;;;;;;;5070873;28;20473;-70
2022/07/30 11:41:17;;;;;;;9.77;2.40;;;;;;;;;;5072573;28;20076;-71
2022/07/30 11:43:43;;;;;;;9.45;2.08;;;;;;;;;;5072452;28;20045;-71
2022/07/30 11:46:13;;;;;;;8.65;2.00;;;;;;;;;;5072446;28;20037;-71
2022/07/30 11:48:40;;;;;;;7.67;2.23;;;;;;;;;;5076285;28;20485;-71
2022/07/30 11:51:07;;;;;;;12.85;2.15;;;;;;;;;;5075569;28;20076;-70
2022/07/30 11:53:34;;;;;;;8.68;2.22;;;;;;;;;;5073326;28;20410;-71
2022/07/30 11:56:00;;;;;;;10.95;2.67;;;;;;;;;;5075626;28;20052;-71
2022/07/30 11:58:31;;;;;;;6.55;2.10;;;;;;;;;;5076084;28;20036;-71
2022/07/30 12:01:00;;;;;;;6.88;2.10;;;;;;;;;;5076263;28;20051;-71
2022/07/30 12:03:27;;;;;;;7.25;1.98;;;;;;;;;;5074724;28;20041;-71
2022/07/30 12:05:53;;;;;;;5.20;1.67;;;;;;;;;;5076223;28;20119;-71
2022/07/30 12:08:20;;;;;;;7.22;2.22;;;;;;;;;;5072122;28;20132;-71
2022/07/30 12:10:57;;;;;;;6.18;1.90;;;;;;;;;;5075006;28;20132;-71
2022/07/30 12:13:23;;;;;;;9.63;1.98;;;;;;;;;;5075916;28;20044;-70
2022/07/30 12:15:49;;;;;;;6.05;1.55;;;;;;;;;;5075820;28;20048;-70
2022/07/30 12:18:33;;;;;;;6.45;1.70;;;;;;;;;;5075837;28;20102;-71
2022/07/30 12:21:00;;;;;;;8.48;2.38;;;;;;;;;;5072503;28;20498;-70
2022/07/30 12:23:27;;;;;;;6.20;1.67;;;;;;;;;;5074651;28;20044;-70
2022/07/30 12:25:53;;;;;;;7.80;1.88;;;;;;;;;;5072694;28;20040;-70
2022/07/30 12:28:24;;;;;;;6.72;1.70;;;;;;;;;;5071781;28;20445;-70
2022/07/30 12:30:51;;;;;;;6.68;1.63;;;;;;;;;;5075425;28;20506;-71
2022/07/30 12:33:17;;;;;;;12.48;2.10;;;;;;;;;;5056955;28;20044;-71
2022/07/30 12:35:47;;;;;;;7.13;1.90;;;;;;;;;;5075383;28;20561;-70
2022/07/30 12:38:14;;;;;;;6.00;1.60;;;;;;;;;;5074532;28;20041;-71
2022/07/30 12:40:53;;;;;;;7.03;1.75;;;;;;;;;;5075475;28;20059;-71
2022/07/30 12:43:38;;;;;;;9.35;1.85;;;;;;;;;;5073342;28;20045;-71
2022/07/30 12:46:04;;;;;;;7.28;1.88;;;;;;;;;;5075435;28;20049;-71
2022/07/30 12:48:30;;;;;;;8.73;1.88;;;;;;;;;;5075423;28;20056;-71
2022/07/30 12:51:06;;;;;;;6.18;1.65;;;;;;;;;;5074175;28;20060;-71
2022/07/30 12:53:32;;;;;;;5.75;1.77;;;;;;;;;;5071640;28;20490;-71
2022/07/30 12:56:12;;;;;;;9.73;2.20;;;;;;;;;;5067053;28;20060;-71
2022/07/30 12:58:38;;;;;;;5.03;1.50;;;;;;;;;;5073582;28;20482;-71
2022/07/30 13:01:04;;;;;;;8.95;1.95;;;;;;;;;;5075158;28;20356;-70
2022/07/30 13:03:40;;;;;;;7.53;1.60;;;;;;;;;;5074930;28;20483;-71
2022/07/30 13:06:12;;;;;;;41.08;4.70;;;;;;;;;;5075148;28;20060;-70
2022/07/30 13:08:44;;;;;;;9.90;2.13;;;;;;;;;;5072644;28;20066;-70
2022/07/30 13:11:11;;;;;;;6.95;1.70;;;;;;;;;;5069969;28;20239;-70
2022/07/30 13:13:37;;;;;;;11.82;1.77;;;;;;;;;;5074238;28;20056;-71
2022/07/30 13:16:04;;;;;;;7.53;1.85;;;;;;;;;;5069522;28;20048;-70
2022/07/30 13:18:31;;;;;;;6.50;1.60;;;;;;;;;;5054338;28;20055;-70
2022/07/30 13:20:58;;;;;;;5.50;1.75;;;;;;;;;;5053458;28;20075;-71
2022/07/30 13:23:25;;;;;;;11.70;1.73;;;;;;;;;;5061490;28;20410;-70
2022/07/30 13:25:51;;;;;;;8.85;1.98;;;;;;;;;;5054702;28;20049;-70
2022/07/30 13:28:17;;;;;;;9.95;2.00;;;;;;;;;;5056512;28;20094;-70
2022/07/30 13:30:43;;;;;;;7.22;1.73;;;;;;;;;;5074349;28;20049;-70
2022/07/30 13:33:09;;;;;;;10.63;2.10;;;;;;;;;;5074349;28;20498;-70
2022/07/30 13:35:36;;;;;;;8.68;1.90;;;;;;;;;;5074284;28;20556;-69
2022/07/30 13:38:02;;;;;;;5.53;1.60;;;;;;;;;;5072829;28;20036;-70
2022/07/30 13:40:30;;;;;;;5.45;1.63;;;;;;;;;;5061871;28;20051;-70
2022/07/30 13:42:57;;;;;;;6.38;1.60;;;;;;;;;;5068910;28;20127;-70
2022/07/30 13:45:23;;;;;;;4.55;1.50;;;;;;;;;;5072677;28;20049;-70
2022/07/30 13:47:49;;;;;;;5.68;1.60;;;;;;;;;;5074349;28;20098;-70
2022/07/30 13:50:15;;;;;;;6.75;1.70;;;;;;;;;;5055027;28;20059;-70
2022/07/30 13:52:41;;;;;;;5.47;1.80;;;;;;;;;;5072765;28;20502;-70
2022/07/30 13:55:07;;;;;;;5.82;1.58;;;;;;;;;;5074055;28;20123;-70
2022/07/30 13:57:33;;;;;;;12.60;1.92;;;;;;;;;;5070887;28;20040;-70
2022/07/30 13:59:59;;;;;;;6.57;1.70;;;;;;;;;;5071610;28;20094;-69
2022/07/30 14:02:25;;;;;;;4.88;1.73;;;;;;;;;;5070474;28;20405;-70
2022/07/30 14:04:51;;;;;;;7.80;1.77;;;;;;;;;;5069871;28;20460;-70
2022/07/30 14:07:17;;;;;;;5.20;1.50;;;;;;;;;;5070965;28;20075;-70
2022/07/30 14:09:43;;;;;;;5.30;1.65;;;;;;;;;;5069868;28;20143;-70
2022/07/30 14:12:09;;;;;;;6.75;1.55;;;;;;;;;;5070901;28;20170;-70
2022/07/30 14:14:35;;;;;;;6.15;1.73;;;;;;;;;;5068021;28;20036;-70
2022/07/30 14:17:01;;;;;;;5.80;1.52;;;;;;;;;;5069403;28;20037;-70
2022/07/30 14:19:27;;;;;;;8.75;1.60;;;;;;;;;;5068966;28;20037;-69
2022/07/30 14:21:53;;;;;;;4.40;1.33;;;;;;;;;;5071044;28;20124;-70
2022/07/30 14:24:20;;;;;;;12.57;1.60;;;;;;;;;;5071346;28;20048;-70
2022/07/30 14:26:46;;;;;;;6.32;1.52;;;;;;;;;;5073443;28;20091;-70
2022/07/30 14:29:12;;;;;;;7.88;1.60;;;;;;;;;;5071605;28;20048;-70
2022/07/30 14:31:39;;;;;;;4.95;1.35;;;;;;;;;;5069039;28;20054;-70
2022/07/30 14:34:05;;;;;;;5.72;1.60;;;;;;;;;;5069719;28;20387;-69
2022/07/30 14:36:32;;;;;;;7.55;1.60;;;;;;;;;;5073277;28;20041;-69